Puget — AEQW — position and weather

sailwx.info

Track history (hours):
 
Tides and Currents Weather Stations Pressure Air Temp Water Temp Dewpoint Dewpoint Depression Visibility Wind Speed Wind Dir Waves Ship Positions

Puget

Last reported at 2015-Mar-02 19:25 UTC. Time now 2015-Mar-03 22:45 UTC.
Position N 47°33' W 122°39'.

Length 20 m; draft 0.2 m.

Type: Ship. MMSI: 369970510.

Date/timePositionNaut miles runAvg speedWind from/ knotsBaromVisibWave heightAir tempDewpointWater temp
2015-Mar-02 19:25N 47°33' W 122°39'5 5.3
2015-Mar-02 18:33N 47°37' W 122°35'  
2015-Feb-25 20:24N 47°40' W 122°24'0 0.2
2015-Feb-25 19:33N 47°40' W 122°24'0 0.0
2015-Feb-25 18:31N 47°40' W 122°24'2 2.1
2015-Feb-25 17:22N 47°39' W 122°27'6 6.7
2015-Feb-25 16:32N 47°35' W 122°32'5 0.2
2015-Feb-24 21:34N 47°33' W 122°39'0 0.0
2015-Feb-24 20:33N 47°33' W 122°39'0 0.0
2015-Feb-24 19:34N 47°33' W 122°39'0 0.0
2015-Feb-24 18:33N 47°33' W 122°39'0 0.0
2015-Feb-24 17:33N 47°33' W 122°39'0 0.0
2015-Feb-24 16:34N 47°33' W 122°39'0 0.0
2015-Feb-24 15:34N 47°33' W 122°39'0 0.0
2015-Feb-23 20:33N 47°33' W 122°39'0 0.0
2015-Feb-23 19:33N 47°33' W 122°39'5 4.7
2015-Feb-23 18:31N 47°34' W 122°32'8 3.9
2015-Feb-23 16:28N 47°40' W 122°23'  
Track history (hours):
 
Tides and Currents Weather Stations Pressure Air Temp Water Temp Dewpoint Dewpoint Depression Visibility Wind Speed Wind Dir Waves Ship Positions

Puget

Last reported at 2015-Mar-02 19:25 UTC. Time now 2015-Mar-03 22:45 UTC.
Position N 47°33' W 122°39'.

Length 20 m; draft 0.2 m.

Type: Ship. MMSI: 369970510.

Date/timePositionNaut miles runAvg speedWind from/ knotsBaromVisibWave heightAir tempDewpointWater temp
2015-Mar-02 19:25N 47°33' W 122°39'5 5.3
2015-Mar-02 18:33N 47°37' W 122°35'  
2015-Feb-25 20:24N 47°40' W 122°24'0 0.2
2015-Feb-25 19:33N 47°40' W 122°24'0 0.0
2015-Feb-25 18:31N 47°40' W 122°24'2 2.1
2015-Feb-25 17:22N 47°39' W 122°27'6 6.7
2015-Feb-25 16:32N 47°35' W 122°32'5 0.2
2015-Feb-24 21:34N 47°33' W 122°39'0 0.0
2015-Feb-24 20:33N 47°33' W 122°39'0 0.0
2015-Feb-24 19:34N 47°33' W 122°39'0 0.0
2015-Feb-24 18:33N 47°33' W 122°39'0 0.0
2015-Feb-24 17:33N 47°33' W 122°39'0 0.0
2015-Feb-24 16:34N 47°33' W 122°39'0 0.0
2015-Feb-24 15:34N 47°33' W 122°39'0 0.0
2015-Feb-23 20:33N 47°33' W 122°39'0 0.0
2015-Feb-23 19:33N 47°33' W 122°39'5 4.7
2015-Feb-23 18:31N 47°34' W 122°32'8 3.9
2015-Feb-23 16:28N 47°40' W 122°23'  

Dump ship's entire track history